Time;durP1;ratioP1;P1;durP2;ratioP2;P2;SDS_P1;SDS_P2;PMS_P1;PMS_P2;Temp;Humidity;BMP_temperature;BMP_pressure;BME280_temperature;BME280_humidity;BME280_pressure;Samples;Min_cycle;Max_cycle;Signal;HPM_P1;HPM_P2
2021/04/26 00:02:40;;;;;;;6.85;5.10;;;;;;;7.55;45.08;100385.14;2283729;83;25580;-73
2021/04/26 00:06:16;;;;;;;6.78;5.03;;;;;;;7.53;45.22;100387.23;2283725;86;25910;-75
2021/04/26 00:09:50;;;;;;;8.88;4.97;;;;;;;7.48;45.33;100394.83;2264869;86;25536;-75
2021/04/26 00:13:17;;;;;;;4.85;3.70;;;;;;;7.42;45.42;100388.12;2334505;82;25836;-77
2021/04/26 00:16:40;;;;;;;7.53;4.87;;;;;;;7.37;45.59;100388.80;2410478;82;25780;-78
2021/04/26 00:20:10;;;;;;;8.40;5.62;;;;;;;7.31;45.70;100386.44;2356342;81;25725;-76
2021/04/26 00:23:31;;;;;;;7.12;4.35;;;;;;;7.26;45.80;100389.71;2381807;82;25707;-76
2021/04/26 00:26:58;;;;;;;4.28;3.87;;;;;;;7.22;45.98;100398.17;2410571;82;25732;-77
2021/04/26 00:30:23;;;;;;;6.45;4.85;;;;;;;7.19;46.10;100391.19;2381748;82;25612;-76
2021/04/26 00:33:46;;;;;;;5.65;4.58;;;;;;;7.16;46.52;100381.12;2448473;80;25508;-77
2021/04/26 00:37:15;;;;;;;6.78;5.08;;;;;;;7.16;46.63;100380.70;2463552;79;25516;-76
2021/04/26 00:40:39;;;;;;;10.85;5.03;;;;;;;7.13;46.78;100377.99;2468901;80;25519;-75
2021/04/26 00:44:04;;;;;;;7.58;4.87;;;;;;;7.16;46.74;100379.83;2466367;80;25207;-76
2021/04/26 00:47:33;;;;;;;8.38;5.40;;;;;;;7.13;46.81;100381.00;2468432;80;25627;-76
2021/04/26 00:51:03;;;;;;;6.22;3.87;;;;;;;7.09;46.94;100379.59;2311643;84;25836;-74
2021/04/26 00:54:26;;;;;;;5.90;4.87;;;;;;;7.06;46.95;100376.88;2333236;83;25635;-77
2021/04/26 00:57:53;;;;;;;9.50;5.28;;;;;;;7.02;47.06;100376.30;2289850;85;25615;-77
2021/04/26 01:01:22;;;;;;;7.35;4.90;;;;;;;7.00;47.10;100365.39;2290105;86;25739;-75
2021/04/26 01:04:46;;;;;;;6.50;4.53;;;;;;;6.98;47.16;100364.02;2290048;85;25771;-75
2021/04/26 01:08:28;;;;;;;8.45;4.95;;;;;;;6.95;47.22;100354.88;2289938;85;25575;-76
2021/04/26 01:16:56;;;;;;;11.90;6.13;;;;;;;6.99;47.28;100363.22;2605430;76;25290;-77
2021/04/26 01:20:57;;;;;;;7.30;5.20;;;;;;;6.88;47.37;100375.29;2529509;77;25577;-76
2021/04/26 01:25:06;;;;;;;8.88;5.03;;;;;;;6.82;47.38;100364.30;2559402;77;25490;-76
2021/04/26 01:29:26;;;;;;;;;;;;;;;;;;;;;
2021/04/26 01:33:28;;;;;;;7.80;5.40;;;;;;;6.80;47.71;100359.45;2599946;74;25613;-77
2021/04/26 01:36:59;;;;;;;6.40;5.62;;;;;;;6.69;47.83;100364.23;2563422;76;25584;-74
2021/04/26 01:40:24;;;;;;;6.83;4.92;;;;;;;6.65;47.98;100362.35;2564286;76;25540;-77
2021/04/26 01:43:48;;;;;;;5.65;4.45;;;;;;;6.60;48.10;100362.15;2564078;77;25397;-75
2021/04/26 01:47:16;;;;;;;6.85;5.28;;;;;;;6.59;48.19;100356.92;2563627;77;25506;-76
2021/04/26 01:50:45;;;;;;;10.38;4.72;;;;;;;6.56;48.28;100351.63;2532798;77;25622;-77
2021/04/26 01:54:20;;;;;;;10.78;6.42;;;;;;;6.56;48.38;100348.62;2564373;77;25596;-75
2021/04/26 01:57:54;;;;;;;11.60;5.78;;;;;;;6.56;48.44;100355.09;2564263;77;25596;-75
2021/04/26 02:01:23;;;;;;;11.78;6.33;;;;;;;6.59;48.35;100355.63;2563982;77;25428;-77
2021/04/26 02:05:06;;;;;;;9.48;6.55;;;;;;;6.58;48.36;100356.05;2563557;77;25630;-73
2021/04/26 02:08:45;;;;;;;12.07;5.78;;;;;;;6.58;48.46;100345.69;2549270;77;25727;-77
2021/04/26 02:12:21;;;;;;;7.73;5.47;;;;;;;6.58;48.37;100348.66;2536140;77;25529;-77
2021/04/26 02:15:58;;;;;;;10.13;6.30;;;;;;;6.60;48.50;100353.50;2535915;77;25430;-76
2021/04/26 02:19:28;;;;;;;8.75;5.85;;;;;;;6.59;48.56;100353.92;2535969;77;25498;-75
2021/04/26 02:22:56;;;;;;;12.25;6.50;;;;;;;6.67;48.42;100350.73;2533535;77;25550;-76
2021/04/26 02:26:22;;;;;;;9.58;6.17;;;;;;;6.66;48.37;100338.20;2534565;77;25545;-77
2021/04/26 02:29:54;;;;;;;7.60;6.22;;;;;;;6.69;48.44;100337.03;2535869;78;25706;-77
2021/04/26 02:33:43;;;;;;;8.80;6.17;;;;;;;6.66;48.33;100326.97;2536058;77;25833;-77
2021/04/26 02:37:46;;;;;;;11.73;7.03;;;;;;;6.67;48.34;100333.48;2534932;77;25675;-75
2021/04/26 02:41:25;;;;;;;12.43;6.97;;;;;;;6.61;48.35;100337.12;2533566;77;25652;-76
2021/04/26 02:45:00;;;;;;;12.13;7.10;;;;;;;6.56;48.46;100347.32;2535185;77;25538;-76
2021/04/26 02:48:38;;;;;;;12.07;6.95;;;;;;;6.52;48.34;100345.44;2535264;78;25532;-76
2021/04/26 02:52:22;;;;;;;8.18;5.87;;;;;;;6.53;48.46;100338.13;2534953;78;25665;-77
2021/04/26 02:55:58;;;;;;;11.30;6.80;;;;;;;6.50;48.49;100328.06;2537975;77;25689;-76
2021/04/26 02:59:28;;;;;;;11.63;6.17;;;;;;;6.54;48.60;100345.48;2534842;77;25632;-76
2021/04/26 03:02:57;;;;;;;8.03;6.20;;;;;;;6.52;48.61;100333.78;2535207;76;25574;-76
2021/04/26 03:06:21;;;;;;;13.72;6.30;;;;;;;6.46;48.56;100333.54;2535152;77;25578;-76
2021/04/26 03:10:17;;;;;;;9.30;6.12;;;;;;;6.48;48.49;100335.80;2534996;78;25711;-77
2021/04/26 03:13:40;;;;;;;10.23;6.72;;;;;;;6.51;48.50;100340.19;2534961;77;25622;-74
2021/04/26 03:17:04;;;;;;;9.48;6.35;;;;;;;6.52;48.36;100336.38;2535253;77;25955;-76
2021/04/26 03:20:32;;;;;;;11.20;6.42;;;;;;;6.50;48.35;100338.42;2535178;77;25562;-75
2021/04/26 03:27:40;;;;;;;8.35;5.55;;;;;;;6.43;48.46;100337.30;2531179;77;25597;-75
2021/04/26 03:31:09;;;;;;;10.37;6.23;;;;;;;6.49;48.43;100328.48;2497719;78;26393;-77
2021/04/26 03:34:44;;;;;;;9.88;6.12;;;;;;;6.47;48.32;100330.12;2519106;77;25479;-77
2021/04/26 03:38:38;;;;;;;10.75;5.50;;;;;;;6.47;48.30;100329.23;2548544;76;25364;-75
2021/04/26 03:41:59;;;;;;;12.55;5.53;;;;;;;6.45;48.28;100338.26;2535003;78;25609;-77
2021/04/26 03:45:27;;;;;;;9.88;5.65;;;;;;;6.45;48.24;100346.45;2344976;83;25725;-76
2021/04/26 03:49:08;;;;;;;7.62;5.35;;;;;;;6.45;48.26;100348.62;2368614;83;25718;-77
2021/04/26 03:52:58;;;;;;;7.97;5.12;;;;;;;6.46;48.25;100349.08;2368547;83;25603;-75
2021/04/26 03:56:44;;;;;;;9.03;4.60;;;;;;;6.46;48.19;100352.96;2368774;83;25437;-75
2021/04/26 04:00:20;;;;;;;7.80;5.47;;;;;;;6.46;48.06;100354.67;2344569;83;25451;-73
2021/04/26 04:03:59;;;;;;;5.30;4.42;;;;;;;6.43;48.11;100358.02;2348829;81;25621;-76
2021/04/26 04:07:26;;;;;;;7.55;4.75;;;;;;;6.46;48.14;100354.67;2457311;79;25572;-77
2021/04/26 04:11:27;;;;;;;7.33;5.25;;;;;;;6.53;48.06;100349.78;2444914;81;25682;-73
2021/04/26 04:14:51;;;;;;;9.88;5.12;;;;;;;6.55;47.94;100349.45;2430658;80;25741;-76
2021/04/26 04:18:19;;;;;;;8.40;5.28;;;;;;;6.58;47.95;100350.87;2445957;80;25672;-75
2021/04/26 04:21:41;;;;;;;9.28;6.17;;;;;;;6.57;47.91;100352.08;2521139;78;25613;-76
2021/04/26 04:25:07;;;;;;;12.03;5.50;;;;;;;6.55;47.90;100348.57;2534912;77;25748;-77
2021/04/26 04:28:38;;;;;;;6.97;5.67;;;;;;;6.51;47.98;100350.55;2507295;78;25507;-77
2021/04/26 04:32:09;;;;;;;13.22;5.95;;;;;;;6.54;48.05;100350.66;2515149;77;25503;-74
2021/04/26 04:35:49;;;;;;;6.87;4.70;;;;;;;6.54;48.03;100352.84;2514808;77;25690;-77
2021/04/26 04:39:30;;;;;;;8.93;4.80;;;;;;;6.57;48.38;100362.45;2407578;81;25718;-77
2021/04/26 04:43:18;;;;;;;9.28;4.67;;;;;;;6.56;48.26;100358.97;2357279;83;25838;-77
2021/04/26 04:46:41;;;;;;;7.58;5.20;;;;;;;6.55;48.26;100368.87;2406539;82;25841;-76
2021/04/26 04:50:26;;;;;;;;;;;;;;;;;;;;;
2021/04/26 04:54:07;;;;;;;6.83;4.30;;;;;;;6.73;48.48;100373.88;2605076;76;27942;-74
2021/04/26 04:57:47;;;;;;;5.80;4.45;;;;;;;6.79;48.45;100376.72;2564557;77;25379;-77
2021/04/26 05:01:22;;;;;;;6.35;4.33;;;;;;;6.92;48.31;100372.89;2564887;77;25570;-76
2021/04/26 05:05:25;;;;;;;4.37;3.72;;;;;;;7.04;48.19;100367.27;2564958;77;25584;-75
2021/04/26 05:09:00;;;;;;;5.47;3.80;;;;;;;7.21;48.11;100369.19;2427522;80;25690;-77
2021/04/26 05:12:42;;;;;;;4.58;4.08;;;;;;;7.33;47.86;100372.25;2474793;80;25749;-74
2021/04/26 05:16:37;;;;;;;5.10;3.80;;;;;;;7.39;47.58;100372.48;2455404;78;25757;-75
2021/04/26 05:20:06;;;;;;;9.93;4.45;;;;;;;7.33;47.40;100370.95;2388092;81;25546;-78
2021/04/26 05:23:31;;;;;;;5.55;3.47;;;;;;;7.32;47.17;100375.64;2342678;82;27420;-77
2021/04/26 05:27:14;;;;;;;6.42;3.33;;;;;;;7.32;47.08;100374.34;2336541;83;26453;-78
2021/04/26 05:30:52;;;;;;;5.20;3.47;;;;;;;7.31;47.02;100370.00;2336500;82;25743;-76
2021/04/26 05:34:20;;;;;;;5.15;2.80;;;;;;;7.36;46.75;100368.47;2374896;82;25892;-75
2021/04/26 05:38:27;;;;;;;2.87;2.20;;;;;;;7.45;46.40;100375.69;2261521;84;25746;-76
2021/04/26 05:42:07;;;;;;;3.07;1.87;;;;;;;7.56;46.17;100371.78;2600233;75;25268;-77
2021/04/26 05:45:35;;;;;;;4.92;2.25;;;;;;;7.61;45.88;100373.23;2564189;77;25635;-77
2021/04/26 05:49:07;;;;;;;4.47;2.45;;;;;;;7.66;45.65;100375.55;2563706;77;25616;-75
2021/04/26 05:52:38;;;;;;;4.05;2.72;;;;;;;7.64;45.38;100369.45;2532609;77;25805;-77
2021/04/26 05:56:25;;;;;;;5.90;2.67;;;;;;;7.67;45.23;100374.75;2564086;76;25471;-77
2021/04/26 05:59:58;;;;;;;5.12;2.42;;;;;;;7.67;45.17;100376.05;2564518;76;25538;-74
2021/04/26 06:03:48;;;;;;;7.33;2.35;;;;;;;7.71;45.17;100381.80;2448003;78;25694;-74
2021/04/26 06:07:16;;;;;;;2.42;1.60;;;;;;;7.76;45.06;100389.31;2387366;81;26122;-74
2021/04/26 06:10:53;;;;;;;3.35;2.45;;;;;;;7.79;45.05;100387.71;2452479;80;25783;-75
2021/04/26 06:14:29;;;;;;;7.37;1.75;;;;;;;7.87;45.10;100398.80;2425031;80;25442;-75
2021/04/26 06:17:50;;;;;;;4.90;2.00;;;;;;;7.97;44.99;100406.08;2387210;82;25587;-74
2021/04/26 06:21:11;;;;;;;4.85;1.80;;;;;;;8.22;44.76;100410.37;2452631;80;25732;-75
2021/04/26 06:24:37;;;;;;;2.42;1.75;;;;;;;9.08;44.45;100404.92;2387104;82;25640;-74
2021/04/26 06:42:56;;;;;;;1.30;0.90;;;;;;;16.56;35.61;100406.12;2486501;78;31310;-75
2021/04/26 06:57:15;;;;;;;2.35;1.00;;;;;;;22.13;29.00;100424.84;2457704;80;25522;-76
2021/04/26 07:00:46;;;;;;;;;;;;;;;23.92;27.73;100432.98;2407271;81;25524;-80
2021/04/26 07:04:14;;;;;;;6.47;1.40;;;;;;;25.43;25.71;100435.92;2435900;81;25647;-80
2021/04/26 07:11:49;;;;;;;;;;;;;;;;;;;;;
2021/04/26 07:15:18;;;;;;;2.20;0.98;;;;;;;23.07;24.95;100440.70;2421957;81;25660;-77
2021/04/26 08:00:20;;;;;;;0.68;0.53;;;;;;;20.62;25.29;100430.07;2390831;82;25377;-74
2021/04/26 08:04:17;;;;;;;1.10;0.57;;;;;;;20.21;26.73;100424.06;2598682;74;25598;-76
2021/04/26 08:07:52;;;;;;;1.62;0.60;;;;;;;22.15;27.23;100431.03;2559074;77;25624;-74
2021/04/26 08:11:16;;;;;;;2.98;0.50;;;;;;;24.79;25.98;100427.52;2567399;76;25600;-77
2021/04/26 08:14:59;;;;;;;0.60;0.50;;;;;;;26.90;24.52;100440.37;2557386;76;25569;-78
2021/04/26 08:18:31;;;;;;;0.80;0.50;;;;;;;28.73;23.47;100435.47;2535097;76;25373;-77
2021/04/26 08:26:31;;;;;;;0.70;0.50;;;;;;;30.77;22.05;100448.91;2435725;79;25450;-77
2021/04/26 08:31:23;;;;;;;0.70;0.50;;;;;;;30.05;21.73;100429.30;2574763;76;25637;-73
2021/04/26 08:34:47;;;;;;;1.40;0.45;;;;;;;29.13;22.18;100441.02;2431575;80;25667;-78
2021/04/26 08:42:18;;;;;;;;;;;;;;;;;;;;;
2021/04/26 08:45:48;;;;;;;0.95;0.55;;;;;;;25.20;24.50;100422.08;2551939;77;25545;-77
2021/04/26 08:49:14;;;;;;;0.90;0.50;;;;;;;25.29;25.07;100424.89;2511994;78;25731;-76
2021/04/26 08:53:07;;;;;;;0.30;0.30;;;;;;;27.17;24.35;100420.50;2282987;85;25616;-73
2021/04/26 09:02:05;;;;;;;4.33;0.65;;;;;;;28.36;22.63;100415.83;2316473;84;25674;-79
2021/04/26 09:06:13;;;;;;;0.40;0.40;;;;;;;26.67;23.02;100404.81;2514610;77;25994;-75
2021/04/26 09:09:56;;;;;;;0.57;0.30;;;;;;;25.71;23.56;100399.30;2460690;80;25747;-79
2021/04/26 09:28:22;;;;;;;0.90;0.50;;;;;;;27.54;23.43;100400.95;2500697;77;27037;-80
2021/04/26 09:32:37;;;;;;;;;;;;;;;;;;;;;
2021/04/26 09:40:17;;;;;;;2.05;0.30;;;;;;;26.16;23.68;100395.80;2604735;74;25633;-79
2021/04/26 09:44:17;;;;;;;0.50;0.50;;;;;;;27.35;22.44;100396.03;2471069;80;25863;-78
2021/04/26 09:51:59;;;;;;;0.60;0.40;;;;;;;28.93;20.49;100377.14;2497406;77;27437;-76
2021/04/26 09:55:55;;;;;;;0.72;0.70;;;;;;;28.23;20.94;100391.44;2454373;78;25845;-85
2021/04/26 10:11:17;;;;;;;3.08;0.50;;;;;;;24.54;20.64;100370.66;2477947;78;26591;-78
2021/04/26 10:18:50;;;;;;;3.35;0.50;;;;;;;25.19;22.47;100372.80;2385145;81;25710;-77
2021/04/26 10:22:45;;;;;;;0.88;0.40;;;;;;;25.98;23.82;100380.88;2411066;81;25757;-75
2021/04/26 10:27:07;;;;;;;2.25;0.60;;;;;;;27.55;23.91;100377.23;2490846;79;26407;-77
2021/04/26 10:34:57;;;;;;;1.30;0.40;;;;;;;29.35;20.29;100361.03;2545150;76;25379;-80
2021/04/26 10:38:56;;;;;;;2.37;0.50;;;;;;;29.68;19.51;100363.33;2504006;79;25575;-75
2021/04/26 10:42:50;;;;;;;0.90;0.47;;;;;;;29.79;18.52;100374.33;2500486;77;25815;-76
2021/04/26 10:46:19;;;;;;;1.05;0.55;;;;;;;29.96;18.59;100369.34;2464870;79;25687;-75
2021/04/26 10:49:49;;;;;;;0.60;0.40;;;;;;;30.43;19.37;100372.45;2432913;79;25811;-75
2021/04/26 10:53:40;;;;;;;;;;;;;;;;;;;;;
2021/04/26 10:57:41;;;;;;;1.02;0.45;;;;;;;30.22;19.97;100373.25;2436704;79;25614;-80
2021/04/26 11:01:28;;;;;;;;;;;;;;;;;;;;;
2021/04/26 11:05:44;;;;;;;1.35;0.60;;;;;;;29.52;20.41;100364.13;2557895;77;25508;-74
2021/04/26 11:09:15;;;;;;;0.98;0.50;;;;;;;29.76;19.93;100363.75;2530844;78;25412;-76
2021/04/26 11:16:44;;;;;;;1.52;0.40;;;;;;;30.24;20.08;100354.73;2540176;77;25503;-74
2021/04/26 11:20:22;;;;;;;0.88;0.53;;;;;;;30.18;20.49;100357.78;2375930;83;25258;-81
2021/04/26 11:23:53;;;;;;;0.82;0.80;;;;;;;29.89;19.93;100357.59;2416889;81;25626;-74
2021/04/26 11:27:23;;;;;;;1.12;0.50;;;;;;;29.25;19.23;100359.80;2460934;80;25194;-72
2021/04/26 11:30:51;;;;;;;2.50;0.65;;;;;;;28.49;18.74;100352.63;2423791;81;25722;-70
2021/04/26 11:34:19;;;;;;;4.45;0.50;;;;;;;27.70;18.46;100354.68;2425550;81;25441;-76
2021/04/26 11:38:07;;;;;;;;;;;;;;;;;;;;;
2021/04/26 11:41:50;;;;;;;6.65;0.80;;;;;;;26.28;18.52;100377.43;2301611;84;25709;-70
2021/04/26 11:45:20;;;;;;;5.15;0.80;;;;;;;25.76;18.93;100379.98;2278955;86;25828;-74
2021/04/26 11:48:52;;;;;;;1.87;0.90;;;;;;;25.73;19.20;100377.43;2454379;77;25440;-73
2021/04/26 11:52:50;;;;;;;2.20;0.80;;;;;;;25.81;19.47;100374.02;2452798;80;25635;-75
2021/04/26 11:56:14;;;;;;;2.05;0.55;;;;;;;25.98;19.64;100362.19;2452596;80;25647;-76
2021/04/26 11:59:51;;;;;;;0.60;0.60;;;;;;;26.25;19.75;100352.16;2456069;80;25603;-77
2021/04/26 12:03:14;;;;;;;3.20;0.68;;;;;;;26.52;19.70;100345.28;2456450;80;25203;-77
2021/04/26 12:06:43;;;;;;;0.85;0.70;;;;;;;26.79;19.52;100340.06;2284668;85;25960;-76
2021/04/26 12:10:20;;;;;;;1.65;1.27;;;;;;;27.02;19.38;100337.70;2271193;86;25343;-76
2021/04/26 12:14:13;;;;;;;1.67;0.90;;;;;;;27.24;19.38;100332.29;2248632;86;25679;-78
2021/04/26 12:17:55;;;;;;;0.65;0.45;;;;;;;27.59;19.12;100329.75;2626736;75;25607;-75
2021/04/26 12:21:19;;;;;;;2.35;0.53;;;;;;;27.74;19.06;100330.81;2483117;78;25642;-73
2021/04/26 12:24:43;;;;;;;0.60;0.50;;;;;;;27.87;18.84;100342.70;2539870;76;25546;-73
2021/04/26 12:28:19;;;;;;;;;;;;;;;;;;;;;
2021/04/26 12:32:54;;;;;;;1.22;0.70;;;;;;;28.17;18.23;100318.02;2534383;77;25598;-75
2021/04/26 12:36:19;;;;;;;1.30;0.70;;;;;;;28.20;18.40;100312.51;2534332;76;25534;-71
2021/04/26 12:39:47;;;;;;;0.95;0.57;;;;;;;28.31;18.31;100321.34;2377401;80;25847;-71
2021/04/26 12:43:11;;;;;;;0.65;0.40;;;;;;;28.34;18.14;100313.14;2439304;79;25846;-76
2021/04/26 12:46:44;;;;;;;1.57;0.80;;;;;;;28.33;17.95;100300.69;2449375;80;25916;-73
2021/04/26 12:50:30;;;;;;;1.75;0.70;;;;;;;28.24;17.76;100303.36;2473801;78;25699;-75
2021/04/26 12:53:51;;;;;;;1.45;0.53;;;;;;;28.15;17.71;100302.03;2488647;78;26106;-73
2021/04/26 12:57:26;;;;;;;3.77;0.70;;;;;;;28.08;17.68;100303.73;2451584;80;25572;-74
2021/04/26 13:01:06;;;;;;;2.47;0.60;;;;;;;28.04;17.66;100295.45;2448663;79;25956;-74
2021/04/26 13:04:43;;;;;;;0.78;0.53;;;;;;;28.04;17.77;100292.78;2473914;77;25610;-73
2021/04/26 13:08:05;;;;;;;1.30;0.60;;;;;;;28.05;17.78;100291.86;2472868;78;25552;-74
2021/04/26 13:11:49;;;;;;;4.12;0.80;;;;;;;27.90;17.87;100289.45;2484082;78;25777;-73
2021/04/26 13:15:23;;;;;;;;;;;;;;;27.80;17.97;100294.87;2501206;77;25835;-76
2021/04/26 13:18:48;;;;;;;0.90;0.70;;;;;;;27.63;18.15;100294.31;2483087;78;25414;-72
2021/04/26 13:22:28;;;;;;;1.52;0.72;;;;;;;27.47;18.34;100292.40;2477022;78;25714;-74
2021/04/26 13:25:50;;;;;;;1.12;0.60;;;;;;;27.38;18.68;100282.12;2466770;78;25825;-74
2021/04/26 13:29:21;;;;;;;1.00;0.55;;;;;;;27.35;19.39;100286.75;2493764;78;25561;-78
2021/04/26 13:32:42;;;;;;;1.50;0.45;;;;;;;27.29;19.54;100287.90;2470450;78;25566;-74
2021/04/26 13:36:05;;;;;;;1.90;0.60;;;;;;;27.24;19.83;100272.06;2464774;79;25673;-73
2021/04/26 13:39:28;;;;;;;0.50;0.47;;;;;;;27.26;20.35;100272.84;2458435;79;25565;-78
2021/04/26 13:42:51;;;;;;;3.33;0.60;;;;;;;27.30;20.87;100281.59;2461770;78;25226;-75
2021/04/26 13:46:28;;;;;;;1.12;0.50;;;;;;;27.31;21.10;100261.94;2447308;80;25643;-77
2021/04/26 13:49:54;;;;;;;0.60;0.50;;;;;;;27.29;21.39;100267.83;2443671;80;25744;-80
2021/04/26 13:53:17;;;;;;;2.15;0.57;;;;;;;27.29;21.62;100261.99;2448073;80;25595;-78
2021/04/26 13:56:40;;;;;;;0.70;0.60;;;;;;;27.26;21.68;100252.77;2477736;78;25745;-77
2021/04/26 14:00:05;;;;;;;0.70;0.57;;;;;;;27.17;21.33;100256.34;2451232;79;25667;-77
2021/04/26 14:03:28;;;;;;;1.85;1.05;;;;;;;27.06;21.38;100257.69;2448126;79;25817;-72
2021/04/26 14:06:49;;;;;;;1.00;0.70;;;;;;;26.77;21.66;100246.14;2450117;80;25877;-78
2021/04/26 14:10:19;;;;;;;0.95;0.70;;;;;;;26.54;21.93;100245.37;2443290;79;25690;-81
2021/04/26 14:13:47;;;;;;;2.65;0.85;;;;;;;26.33;21.74;100232.93;2332649;84;25948;-80
2021/04/26 14:17:12;;;;;;;1.22;0.70;;;;;;;26.10;21.21;100232.12;2321072;83;25955;-77
2021/04/26 14:20:37;;;;;;;4.17;0.80;;;;;;;25.80;20.79;100236.09;2324043;83;25699;-77
2021/04/26 14:24:01;;;;;;;4.30;0.95;;;;;;;25.46;20.73;100225.89;2295541;83;25777;-77
2021/04/26 14:27:34;;;;;;;;;;;;;;;;;;;;;
2021/04/26 14:31:04;;;;;;;1.72;0.80;;;;;;;24.83;20.67;100221.16;2562466;76;25560;-73
2021/04/26 14:34:25;;;;;;;0.93;0.50;;;;;;;24.53;20.78;100219.64;2518574;78;25463;-73
2021/04/26 14:37:47;;;;;;;5.85;0.80;;;;;;;24.25;20.67;100217.94;2518296;78;25942;-73
2021/04/26 14:41:08;;;;;;;3.02;0.90;;;;;;;23.94;20.70;100207.49;2518446;78;26318;-74
2021/04/26 14:44:46;;;;;;;1.32;0.60;;;;;;;23.64;20.66;100210.69;2517878;76;25559;-72
2021/04/26 14:48:32;;;;;;;2.50;2.00;;;;;;;23.39;20.44;100202.61;2373400;82;26287;-71
2021/04/26 14:51:57;;;;;;;4.03;1.80;;;;;;;23.09;20.20;100191.58;2370450;83;25863;-73
2021/04/26 14:55:20;;;;;;;4.67;1.60;;;;;;;22.71;20.28;100188.70;2287715;86;25809;-73
2021/04/26 15:03:39;;;;;;;2.90;1.40;;;;;;;22.44;21.69;100189.50;2284047;84;25829;-73
2021/04/26 15:07:34;;;;;;;;;;;;;;;22.55;23.10;100180.33;2276556;86;25821;-71
2021/04/26 15:21:56;;;;;;;3.10;1.10;;;;;;;22.75;26.19;100165.13;2561376;76;25178;-72
2021/04/26 15:25:17;;;;;;;2.95;1.30;;;;;;;22.70;26.34;100169.69;2387036;81;25787;-73
2021/04/26 15:28:42;;;;;;;2.42;1.12;;;;;;;22.56;26.25;100169.23;2348618;84;25944;-72
2021/04/26 15:32:08;;;;;;;2.30;0.82;;;;;;;22.35;26.21;100166.74;2340280;82;25812;-77
2021/04/26 15:35:52;;;;;;;3.45;0.90;;;;;;;22.13;26.20;100168.61;2603824;76;25681;-77
2021/04/26 15:39:17;;;;;;;2.20;1.10;;;;;;;21.83;25.99;100164.12;2563246;77;25652;-73
2021/04/26 15:42:56;;;;;;;;;;;;;;;;;;;;;
2021/04/26 15:57:00;;;;;;;2.45;0.78;;;;;;;21.10;26.33;100190.19;2547894;76;30881;-72
2021/04/26 16:00:35;;;;;;;0.95;0.68;;;;;;;20.97;26.39;100188.27;2478897;78;25666;-73
2021/04/26 16:03:58;;;;;;;3.62;0.90;;;;;;;21.00;26.64;100197.93;2519476;77;25574;-71
2021/04/26 16:07:20;;;;;;;1.85;1.20;;;;;;;21.05;26.44;100193.84;2458172;80;25775;-71
2021/04/26 16:10:42;;;;;;;1.35;0.72;;;;;;;21.13;26.41;100189.26;2458677;80;25684;-73
2021/04/26 16:14:10;;;;;;;7.00;0.93;;;;;;;21.17;26.34;100186.48;2439987;80;25570;-76
2021/04/26 16:17:38;;;;;;;3.35;1.47;;;;;;;21.12;26.31;100184.38;2287548;84;25918;-78
2021/04/26 16:21:02;;;;;;;4.25;1.17;;;;;;;21.04;26.54;100191.65;2371811;83;29725;-76
2021/04/26 16:24:24;;;;;;;2.65;1.20;;;;;;;20.96;26.66;100182.55;2371002;83;25792;-77
2021/04/26 16:27:45;;;;;;;4.75;1.10;;;;;;;20.80;26.63;100177.62;2371133;83;25739;-79
2021/04/26 16:31:07;;;;;;;2.67;0.80;;;;;;;20.61;26.68;100176.67;2360578;81;26295;-75
2021/04/26 16:34:32;;;;;;;2.55;0.93;;;;;;;20.40;26.79;100178.41;2373884;78;25747;-79
2021/04/26 16:38:13;;;;;;;3.35;1.10;;;;;;;20.19;26.88;100175.73;2511930;77;25488;-81
2021/04/26 16:42:11;;;;;;;2.95;0.80;;;;;;;19.95;27.03;100170.00;2500074;77;25661;-80
2021/04/26 16:45:58;;;;;;;2.27;1.12;;;;;;;19.72;27.24;100160.28;2420187;79;31325;-75
2021/04/26 16:50:16;;;;;;;;;;;;;;;;;;;;;
2021/04/26 16:57:59;;;;;;;1.57;1.15;;;;;;;18.72;27.23;100152.95;2470051;78;30875;-74
2021/04/26 17:06:41;;;;;;;1.50;0.93;;;;;;;18.04;27.39;100153.73;2164661;89;25926;-74
2021/04/26 17:15:28;;;;;;;3.70;1.20;;;;;;;16.91;28.16;100123.06;2123548;91;26465;-72
2021/04/26 17:42:49;;;;;;;1.82;0.95;;;;;;;15.43;29.90;100144.06;2462626;78;31510;-72
2021/04/26 17:46:16;;;;;;;1.40;1.00;;;;;;;15.49;30.23;100146.25;2422257;80;25875;-76
2021/04/26 17:49:37;;;;;;;2.47;0.82;;;;;;;15.61;30.60;100145.80;2398167;80;25759;-74
2021/04/26 17:53:10;;;;;;;1.12;0.90;;;;;;;15.71;30.91;100144.94;2360130;81;25888;-73
2021/04/26 17:56:51;;;;;;;0.82;0.60;;;;;;;15.76;31.19;100149.33;2371415;81;25706;-72
2021/04/26 18:00:18;;;;;;;2.02;1.25;;;;;;;15.83;31.42;100151.51;2363734;81;25688;-75
2021/04/26 18:03:48;;;;;;;1.02;0.93;;;;;;;15.86;31.71;100147.53;2267127;85;25659;-74
2021/04/26 18:07:37;;;;;;;1.27;0.72;;;;;;;15.88;31.92;100154.98;2152008;90;26260;-77
2021/04/26 18:11:00;;;;;;;1.12;0.90;;;;;;;15.88;32.11;100154.98;2245339;85;25745;-78
2021/04/26 18:29:38;;;;;;;1.15;0.95;;;;;;;15.81;33.04;100158.52;2516691;78;31202;-73
2021/04/26 18:33:01;;;;;;;1.15;0.95;;;;;;;15.74;33.13;100162.02;2518514;78;25660;-77
2021/04/26 18:36:23;;;;;;;1.17;0.82;;;;;;;15.71;33.28;100170.78;2519801;78;25704;-72
2021/04/26 18:39:44;;;;;;;1.50;1.00;;;;;;;15.69;33.38;100165.08;2519754;78;26014;-74
2021/04/26 18:43:08;;;;;;;1.02;0.80;;;;;;;15.66;33.52;100174.24;2519161;78;25547;-75
2021/04/26 18:46:30;;;;;;;1.10;0.80;;;;;;;15.63;33.66;100169.89;2519716;78;26248;-77
2021/04/26 18:49:53;;;;;;;0.65;0.65;;;;;;;15.59;33.78;100175.59;2519452;78;25778;-76
2021/04/26 18:53:17;;;;;;;1.62;1.02;;;;;;;15.58;33.85;100182.14;2516143;78;25579;-76
2021/04/26 18:56:39;;;;;;;1.75;1.10;;;;;;;15.52;33.96;100181.72;2516141;78;25634;-73
2021/04/26 19:00:06;;;;;;;1.37;0.90;;;;;;;15.49;34.06;100175.15;2482565;77;25651;-78
2021/04/26 19:03:34;;;;;;;1.77;1.12;;;;;;;15.46;34.17;100181.71;2474107;77;25808;-77
2021/04/26 19:06:59;;;;;;;1.45;1.00;;;;;;;15.42;34.28;100179.94;2505727;77;25644;-79
2021/04/26 19:25:16;;;;;;;1.98;1.30;;;;;;;15.26;34.72;100188.70;2555152;75;30921;-78
2021/04/26 19:28:49;;;;;;;1.35;1.05;;;;;;;15.19;34.78;100190.88;2393748;80;25730;-73
2021/04/26 19:32:29;;;;;;;2.65;0.80;;;;;;;15.19;34.91;100186.50;2542442;76;30846;-73
2021/04/26 19:35:57;;;;;;;1.70;1.12;;;;;;;15.14;34.99;100197.86;2514703;78;25659;-76
2021/04/26 19:39:18;;;;;;;2.00;1.25;;;;;;;15.11;35.08;100193.47;2515289;78;25351;-78
2021/04/26 19:42:43;;;;;;;6.70;1.52;;;;;;;15.08;35.14;100192.14;2515064;78;25785;-80
2021/04/26 19:46:05;;;;;;;1.40;1.12;;;;;;;15.05;35.20;100198.29;2511188;76;25623;-77
2021/04/26 19:49:29;;;;;;;2.27;1.25;;;;;;;15.02;35.25;100199.59;2509853;78;25663;-77
2021/04/26 19:53:01;;;;;;;5.92;1.30;;;;;;;14.99;35.32;100206.14;2532799;77;25217;-78
2021/04/26 19:56:22;;;;;;;2.08;1.10;;;;;;;14.96;35.35;100202.20;2550423;77;25338;-77
2021/04/26 19:59:59;;;;;;;1.92;0.98;;;;;;;14.91;35.40;100193.41;2555041;77;25824;-77
2021/04/26 20:03:23;;;;;;;1.95;1.25;;;;;;;14.88;35.47;100201.28;2479125;78;25659;-78
2021/04/26 20:06:49;;;;;;;1.87;1.67;;;;;;;14.85;35.53;100198.67;2463347;80;25640;-75
2021/04/26 20:10:12;;;;;;;2.25;1.40;;;;;;;14.80;35.60;100199.95;2463166;79;25753;-79
2021/04/26 20:13:47;;;;;;;2.12;1.62;;;;;;;14.78;35.64;100206.05;2510207;78;25595;-79
2021/04/26 20:17:09;;;;;;;2.98;1.42;;;;;;;14.74;35.71;100202.98;2465667;79;25591;-78
2021/04/26 20:20:40;;;;;;;2.20;1.47;;;;;;;14.69;35.78;100197.73;2514228;78;25684;-78
2021/04/26 20:24:07;;;;;;;4.62;1.80;;;;;;;14.66;35.82;100200.34;2464183;80;25677;-77
2021/04/26 20:27:28;;;;;;;3.33;2.42;;;;;;;14.61;35.88;100195.08;2477062;78;25843;-79
2021/04/26 20:31:00;;;;;;;6.27;3.90;;;;;;;14.57;35.93;100191.98;2486692;78;25770;-75
2021/04/26 20:34:27;;;;;;;5.22;3.37;;;;;;;14.56;36.67;100195.48;2518896;78;25685;-79
2021/04/26 20:37:51;;;;;;;6.53;3.40;;;;;;;14.60;36.64;100189.81;2536483;78;25696;-80
2021/04/26 20:41:13;;;;;;;13.05;4.08;;;;;;;14.56;36.73;100191.55;2471886;78;25459;-77
2021/04/26 20:44:38;;;;;;;4.90;3.62;;;;;;;14.51;36.76;100197.64;2472266;78;25675;-78
2021/04/26 20:48:02;;;;;;;6.40;4.28;;;;;;;14.45;36.85;100198.47;2468598;80;25323;-77
2021/04/26 20:51:31;;;;;;;4.30;3.58;;;;;;;14.41;36.89;100198.02;2479045;78;25676;-78
2021/04/26 20:54:56;;;;;;;7.37;4.28;;;;;;;14.36;36.97;100197.10;2490607;78;25358;-74
2021/04/26 20:58:18;;;;;;;6.50;4.00;;;;;;;14.31;37.01;100195.78;2518752;78;25625;-78